CheckWX is a tool to help pilots better visualize weather data.  It is not intended as a substitute for an official pre-flight weather briefing.

12:40:56 UTC

KPRN METAR
Mac Crenshaw Memorial Airport
Greenville, Alabama, USA
Current

19 mins ago

KPRN 221222Z AUTO 17005KT 10SM BKN009 OVC012 21/18 A3009 RMK AO2 CIG 005V011 T02110183 $
Observed
Feb-22 @ 12:22 UTC
Wind
  • 170° at 5 KTS
Visibility
10 SM
Flight Rules
IFR
Cloud Levels
  • Broken at 900' AGL
  • Overcast at 1,200' AGL
Temperature
21°C / 70°F
Dewpoint
18°C / 64°F
Humidity
83%
Altimeter
30.09" Hg
Pressure
1018.92 hPa
Previous

45 mins ago

KPRN 221156Z AUTO VRB06KT 10SM OVC012 21/18 A3009 RMK AO2 SLP183 T02110183 10228 20211 51014 $
Observed
Feb-22 @ 11:56 UTC
Wind
  • Variable at 6 KTS
Visibility
10 SM
Flight Rules
MVFR
Cloud Levels
  • Overcast at 1,200' AGL
Temperature
21°C / 70°F
Dewpoint
18°C / 64°F
Humidity
83%
Altimeter
30.09" Hg
Pressure
1018.3 hPa
Previous

2 hours ago

KPRN 221056Z AUTO 19004KT 10SM OVC014 22/19 A3008 RMK AO2 SLP181 T02170189 $
Observed
Feb-22 @ 10:56 UTC
Wind
  • 190° at 4 KTS
Visibility
10 SM
Flight Rules
MVFR
Cloud Levels
  • Overcast at 1,400' AGL
Temperature
22°C / 72°F
Dewpoint
19°C / 66°F
Humidity
83%
Altimeter
30.08" Hg
Pressure
1018.1 hPa